createdAt,value
2022-10-06T00:02:23.743Z,6.18
2022-10-06T00:04:50.529Z,4.18
2022-10-06T00:07:18.093Z,7.13
2022-10-06T00:09:44.649Z,2.97
2022-10-06T00:12:11.505Z,5.05
2022-10-06T00:14:38.265Z,7.72
2022-10-06T00:17:04.985Z,4.95
2022-10-06T00:19:31.966Z,9.45
2022-10-06T00:21:58.669Z,7.03
2022-10-06T00:24:25.404Z,5.32
2022-10-06T00:26:52.020Z,7.15
2022-10-06T00:29:18.802Z,3.15
2022-10-06T00:31:45.755Z,5.95
2022-10-06T00:34:13.026Z,3.00
2022-10-06T00:36:39.950Z,6.95
2022-10-06T00:39:06.542Z,4.82
2022-10-06T00:41:33.282Z,8.43
2022-10-06T00:43:59.971Z,4.95
2022-10-06T00:46:48.287Z,3.97
2022-10-06T00:49:28.265Z,5.93
2022-10-06T00:52:00.497Z,4.90
2022-10-06T00:54:28.575Z,5.65
2022-10-06T00:56:55.612Z,5.50
2022-10-06T00:59:22.292Z,6.50
2022-10-06T01:02:21.549Z,4.80
2022-10-06T01:04:58.438Z,4.00
2022-10-06T01:07:28.444Z,3.75
2022-10-06T01:09:59.067Z,6.43
2022-10-06T01:12:29.095Z,4.63
2022-10-06T01:14:56.811Z,5.97
2022-10-06T01:17:52.590Z,4.22
2022-10-06T01:20:21.915Z,5.50
2022-10-06T01:22:55.499Z,7.70
2022-10-06T01:25:22.813Z,5.72
2022-10-06T01:27:55.915Z,8.07
2022-10-06T01:30:36.553Z,4.68
2022-10-06T01:33:05.414Z,5.40
2022-10-06T01:35:32.122Z,5.47
2022-10-06T01:38:01.624Z,5.50
2022-10-06T01:40:29.263Z,5.45
2022-10-06T01:42:56.624Z,6.68
2022-10-06T01:45:23.259Z,3.55
2022-10-06T01:47:49.877Z,3.95
2022-10-06T01:50:17.103Z,7.22
2022-10-06T01:52:43.788Z,3.42
2022-10-06T01:55:10.361Z,6.18
2022-10-06T01:57:49.270Z,5.78
2022-10-06T02:00:16.017Z,3.15
2022-10-06T02:02:43.550Z,6.72
2022-10-06T02:05:11.123Z,3.38
2022-10-06T02:07:38.302Z,5.72
2022-10-06T02:10:06.479Z,9.40
2022-10-06T02:12:33.663Z,5.53
2022-10-06T02:15:00.495Z,5.28
2022-10-06T02:17:27.126Z,4.78
2022-10-06T02:19:53.718Z,4.45
2022-10-06T02:22:20.460Z,3.78
2022-10-06T02:24:47.101Z,6.65
2022-10-06T02:27:13.699Z,3.42
2022-10-06T02:29:40.530Z,4.47
2022-10-06T02:32:07.498Z,2.25
2022-10-06T02:34:34.141Z,5.90
2022-10-06T02:37:00.750Z,4.43
2022-10-06T02:39:27.784Z,4.72
2022-10-06T02:41:54.456Z,6.45
2022-10-06T02:44:21.447Z,6.10
2022-10-06T02:46:48.758Z,5.88
2022-10-06T02:49:15.690Z,6.63
2022-10-06T02:51:42.291Z,6.40
2022-10-06T02:54:09.096Z,5.72
2022-10-06T02:56:37.864Z,7.05
2022-10-06T02:59:04.477Z,5.65
2022-10-06T03:01:31.385Z,6.65
2022-10-06T03:03:58.062Z,5.68
2022-10-06T03:06:42.682Z,6.45
2022-10-06T03:09:10.164Z,6.18
2022-10-06T03:11:38.905Z,4.82
2022-10-06T03:14:06.731Z,6.28
2022-10-06T03:16:39.656Z,6.85
2022-10-06T03:19:07.463Z,8.07
2022-10-06T03:21:40.317Z,4.78
2022-10-06T03:24:07.764Z,8.27
2022-10-06T03:26:40.124Z,8.38
2022-10-06T03:29:11.344Z,5.85
2022-10-06T03:31:39.830Z,8.30
2022-10-06T03:34:07.000Z,6.53
2022-10-06T03:36:34.562Z,3.97
2022-10-06T03:39:03.915Z,8.07
2022-10-06T03:41:32.832Z,5.43
2022-10-06T03:44:00.247Z,3.65
2022-10-06T03:46:29.206Z,3.50
2022-10-06T03:48:57.344Z,8.63
2022-10-06T03:51:27.249Z,5.43
2022-10-06T03:53:54.441Z,6.88
2022-10-06T03:56:32.691Z,5.38
2022-10-06T03:59:01.730Z,6.65
2022-10-06T04:01:30.831Z,5.22
2022-10-06T04:03:59.770Z,6.18
2022-10-06T04:06:28.193Z,5.13
2022-10-06T04:08:55.470Z,6.50
2022-10-06T04:11:30.648Z,5.22
2022-10-06T04:14:02.629Z,5.38
2022-10-06T04:16:31.677Z,8.63
2022-10-06T04:19:01.953Z,5.18
2022-10-06T04:21:30.080Z,4.55
2022-10-06T04:23:58.646Z,7.82
2022-10-06T04:26:28.402Z,5.45
2022-10-06T04:28:54.995Z,4.50
2022-10-06T04:31:25.241Z,4.47
2022-10-06T04:33:54.823Z,4.82
2022-10-06T04:36:29.813Z,4.50
2022-10-06T04:38:58.248Z,8.25
2022-10-06T04:41:27.511Z,7.43
2022-10-06T04:43:55.171Z,4.97
2022-10-06T04:46:42.057Z,4.75
2022-10-06T04:49:13.393Z,5.65
2022-10-06T04:51:44.612Z,2.85
2022-10-06T04:54:11.590Z,3.22
2022-10-06T04:59:47.606Z,3.00
2022-10-06T05:02:20.728Z,5.00
2022-10-06T05:04:48.148Z,9.83
2022-10-06T05:07:14.943Z,3.22
2022-10-06T05:09:41.538Z,3.97
2022-10-06T05:12:11.493Z,5.28
2022-10-06T05:14:38.073Z,2.85
2022-10-06T05:17:04.642Z,3.70
2022-10-06T05:19:31.296Z,3.38
2022-10-06T05:21:57.894Z,2.90
2022-10-06T05:24:24.501Z,3.00
2022-10-06T05:26:51.281Z,1.40
2022-10-06T05:29:17.853Z,2.60
2022-10-06T05:31:45.328Z,3.05
2022-10-06T05:34:12.153Z,3.10
2022-10-06T05:36:41.623Z,3.97
2022-10-06T05:39:08.313Z,3.60
2022-10-06T05:41:37.622Z,2.80
2022-10-06T05:44:04.649Z,3.53
2022-10-06T05:46:33.160Z,3.83
2022-10-06T05:49:09.064Z,3.83
2022-10-06T05:51:37.344Z,1.75
2022-10-06T05:54:04.132Z,2.15
2022-10-06T05:56:32.798Z,3.65
2022-10-06T05:59:00.780Z,1.35
2022-10-06T06:01:33.078Z,2.70
2022-10-06T06:04:06.437Z,1.50
2022-10-06T06:06:35.992Z,2.80
2022-10-06T06:09:11.993Z,2.28
2022-10-06T06:11:41.256Z,1.50
2022-10-06T06:14:13.406Z,4.05
2022-10-06T06:16:42.008Z,4.15
2022-10-06T06:19:10.754Z,8.98
2022-10-06T06:21:37.786Z,7.45
2022-10-06T06:24:05.424Z,1.38
2022-10-06T06:26:34.490Z,1.55
2022-10-06T06:29:05.165Z,1.23
2022-10-06T06:31:37.970Z,1.05
2022-10-06T06:34:06.682Z,5.97
2022-10-06T06:36:36.893Z,3.05
2022-10-06T06:39:10.439Z,1.92
2022-10-06T06:41:42.456Z,5.70
2022-10-06T06:44:11.481Z,2.00
2022-10-06T06:46:39.089Z,2.03
2022-10-06T06:49:06.803Z,3.58
2022-10-06T06:51:40.168Z,6.47
2022-10-06T06:54:07.329Z,2.42
2022-10-06T06:56:35.348Z,1.83
2022-10-06T06:59:06.541Z,1.60
2022-10-06T07:01:33.234Z,1.23
2022-10-06T07:04:00.106Z,4.30
2022-10-06T07:06:29.115Z,2.90
2022-10-06T07:08:57.924Z,2.63
2022-10-06T07:11:35.792Z,3.85
2022-10-06T07:14:05.417Z,4.78
2022-10-06T07:16:51.536Z,1.98
2022-10-06T07:19:38.398Z,6.43
2022-10-06T07:22:26.612Z,3.15
2022-10-06T07:25:12.591Z,6.47
2022-10-06T07:27:42.572Z,3.90
2022-10-06T07:30:29.018Z,4.00
2022-10-06T07:32:55.948Z,8.25
2022-10-06T07:35:24.183Z,2.50
2022-10-06T07:37:53.064Z,8.68
2022-10-06T07:40:20.111Z,2.65
2022-10-06T07:42:51.783Z,6.32
2022-10-06T07:45:39.600Z,5.47
2022-10-06T07:48:10.643Z,2.70
2022-10-06T07:50:41.254Z,8.48
2022-10-06T07:53:09.185Z,5.15
2022-10-06T07:55:37.307Z,5.10
2022-10-06T07:58:03.937Z,4.28
2022-10-06T08:00:30.648Z,7.07
2022-10-06T08:02:57.288Z,4.93
2022-10-06T08:05:23.912Z,5.72
2022-10-06T08:07:52.566Z,9.25
2022-10-06T08:10:20.754Z,5.50
2022-10-06T08:15:19.544Z,5.82
2022-10-06T08:17:46.223Z,5.80
2022-10-06T08:20:13.932Z,5.07
2022-10-06T08:22:41.218Z,6.97
2022-10-06T08:25:09.970Z,3.65
2022-10-06T08:27:37.958Z,6.72
2022-10-06T08:30:07.245Z,4.25
2022-10-06T08:32:34.034Z,6.10
2022-10-06T08:35:00.621Z,5.15
2022-10-06T08:37:27.265Z,6.22
2022-10-06T08:39:54.645Z,5.22
2022-10-06T08:42:41.322Z,4.55
2022-10-06T08:45:17.499Z,3.17
2022-10-06T08:47:55.281Z,3.63
2022-10-06T08:50:26.868Z,6.22
2022-10-06T08:53:17.595Z,5.65
2022-10-06T08:55:58.184Z,5.57
2022-10-06T08:58:39.147Z,5.47
2022-10-06T09:01:18.828Z,5.85
2022-10-06T09:03:48.877Z,9.85
2022-10-06T09:06:31.356Z,4.43
2022-10-06T09:09:05.327Z,5.07
2022-10-06T09:11:54.834Z,9.38
2022-10-06T09:14:24.735Z,9.63
2022-10-06T09:16:58.102Z,4.13
2022-10-06T09:19:40.173Z,5.10
2022-10-06T09:22:16.547Z,7.40
2022-10-06T09:24:47.517Z,4.95
2022-10-06T09:27:34.029Z,8.32
2022-10-06T09:30:04.885Z,14.05
2022-10-06T09:32:33.168Z,4.68
2022-10-06T09:34:59.907Z,4.43
2022-10-06T09:37:27.454Z,6.88
2022-10-06T09:39:55.181Z,7.32
2022-10-06T09:42:35.632Z,6.68
2022-10-06T09:45:06.574Z,5.40
2022-10-06T09:47:40.870Z,5.85
2022-10-06T09:50:25.964Z,9.70
2022-10-06T09:53:00.377Z,6.13
2022-10-06T09:55:37.641Z,4.40
2022-10-06T09:58:17.573Z,10.13
2022-10-06T10:00:52.873Z,4.32
2022-10-06T10:03:20.715Z,5.43
2022-10-06T10:05:50.439Z,6.95
2022-10-06T10:08:25.527Z,17.73
2022-10-06T10:11:38.809Z,13.00
2022-10-06T10:14:16.739Z,7.65
2022-10-06T10:16:43.851Z,5.70
2022-10-06T10:19:27.993Z,6.68
2022-10-06T10:21:57.973Z,8.80
2022-10-06T10:24:53.526Z,7.57
2022-10-06T10:27:49.667Z,10.80
2022-10-06T10:30:16.682Z,9.95
2022-10-06T10:32:52.633Z,10.70
2022-10-06T10:35:32.665Z,5.72
2022-10-06T10:38:13.745Z,9.23
2022-10-06T10:40:51.621Z,5.53
2022-10-06T10:43:32.943Z,11.45
2022-10-06T10:46:30.645Z,9.00
2022-10-06T10:49:05.956Z,8.45
2022-10-06T10:51:46.977Z,6.97
2022-10-06T10:54:19.043Z,4.88
2022-10-06T10:56:49.107Z,7.55
2022-10-06T10:59:30.331Z,6.30
2022-10-06T11:02:15.476Z,8.63
2022-10-06T11:04:49.599Z,3.78
2022-10-06T11:10:06.694Z,9.98
2022-10-06T11:12:41.565Z,9.50
2022-10-06T11:15:22.152Z,6.55
2022-10-06T11:17:50.422Z,5.97
2022-10-06T11:20:38.988Z,8.88
2022-10-06T11:23:24.257Z,5.55
2022-10-06T11:26:09.773Z,6.88
2022-10-06T11:28:53.677Z,4.97
2022-10-06T11:31:23.418Z,9.52
2022-10-06T11:33:54.210Z,8.07
2022-10-06T11:36:49.095Z,5.60
2022-10-06T11:39:20.136Z,10.32
2022-10-06T11:41:57.861Z,5.68
2022-10-06T11:44:33.505Z,6.18
2022-10-06T11:47:34.991Z,7.13
2022-10-06T11:50:39.090Z,6.13
2022-10-06T11:53:14.073Z,9.25
2022-10-06T11:55:40.619Z,6.80
2022-10-06T11:58:41.883Z,7.10
2022-10-06T12:00:57.600Z,4.68
2022-10-06T12:03:32.740Z,6.47
2022-10-06T12:05:59.730Z,5.35
2022-10-06T12:08:40.157Z,5.60
2022-10-06T12:11:42.204Z,4.57
2022-10-06T12:17:50.297Z,9.20
2022-10-06T12:20:34.654Z,4.30
2022-10-06T12:26:07.622Z,9.05
2022-10-06T12:28:57.698Z,6.45
2022-10-06T12:31:51.143Z,8.82
2022-10-06T12:34:39.991Z,6.60
2022-10-06T12:37:22.105Z,6.65
2022-10-06T12:39:48.796Z,6.65
2022-10-06T12:42:20.546Z,7.97
2022-10-06T12:44:51.635Z,4.13
2022-10-06T12:47:38.230Z,7.93
2022-10-06T12:50:25.408Z,4.22
2022-10-06T12:53:13.427Z,5.97
2022-10-06T12:55:53.118Z,5.15
2022-10-06T12:58:26.994Z,6.03
2022-10-06T13:00:53.777Z,6.78
2022-10-06T13:03:24.899Z,7.20
2022-10-06T13:05:55.881Z,6.35
2022-10-06T13:08:27.909Z,8.50
2022-10-06T13:11:16.927Z,5.85
2022-10-06T13:13:52.734Z,6.43
2022-10-06T13:16:25.140Z,7.95
2022-10-06T13:18:56.229Z,7.43
2022-10-06T13:21:23.947Z,8.35
2022-10-06T13:23:52.004Z,8.60
2022-10-06T13:26:32.760Z,6.30
2022-10-06T13:29:00.274Z,7.85
2022-10-06T13:31:30.249Z,7.10
2022-10-06T13:34:01.432Z,5.95
2022-10-06T13:36:29.947Z,7.63
2022-10-06T13:38:56.596Z,13.82
2022-10-06T13:41:45.747Z,5.05
2022-10-06T13:44:12.273Z,6.82
2022-10-06T13:46:42.434Z,5.55
2022-10-06T13:49:20.960Z,6.60
2022-10-06T13:51:53.605Z,7.55
2022-10-06T13:54:46.283Z,7.40
2022-10-06T13:57:44.153Z,9.65
2022-10-06T14:00:52.387Z,8.57
2022-10-06T14:06:07.318Z,9.38
2022-10-06T14:08:34.787Z,10.20
2022-10-06T14:11:04.551Z,9.00
2022-10-06T14:14:03.520Z,8.30
2022-10-06T14:16:30.373Z,7.15
2022-10-06T14:19:02.504Z,11.57
2022-10-06T14:21:36.952Z,10.77
2022-10-06T14:24:16.294Z,12.35
2022-10-06T14:26:49.782Z,5.93
2022-10-06T14:29:17.565Z,9.27
2022-10-06T14:31:45.548Z,5.65
2022-10-06T14:34:16.896Z,9.75
2022-10-06T14:36:55.138Z,12.38
2022-10-06T14:39:22.095Z,11.32
2022-10-06T14:41:48.940Z,7.65
2022-10-06T14:44:16.060Z,7.50
2022-10-06T14:46:47.406Z,5.82
2022-10-06T14:49:14.349Z,7.82
2022-10-06T14:51:42.718Z,7.28
2022-10-06T14:54:11.164Z,4.72
2022-10-06T14:56:38.988Z,5.43
2022-10-06T14:59:08.270Z,12.05
2022-10-06T15:01:37.233Z,3.80
2022-10-06T15:04:09.838Z,8.25
2022-10-06T15:06:55.037Z,5.78
2022-10-06T15:09:21.785Z,9.38
2022-10-06T15:11:48.400Z,7.28
2022-10-06T15:14:15.298Z,7.70
2022-10-06T15:16:43.723Z,9.20
2022-10-06T15:19:11.995Z,8.85
2022-10-06T15:21:40.208Z,5.22
2022-10-06T15:24:08.027Z,4.78
2022-10-06T15:26:53.365Z,9.05
2022-10-06T15:29:19.994Z,6.00
2022-10-06T15:31:58.691Z,7.80
2022-10-06T15:34:28.413Z,5.68
2022-10-06T15:36:56.893Z,5.78
2022-10-06T15:39:25.695Z,7.00
2022-10-06T15:41:53.220Z,6.05
2022-10-06T15:44:20.596Z,10.88
2022-10-06T15:46:49.548Z,7.57
2022-10-06T15:49:19.848Z,5.15
2022-10-06T15:51:59.368Z,5.63
2022-10-06T15:54:28.136Z,4.30
2022-10-06T15:57:00.360Z,7.10
2022-10-06T15:59:29.019Z,4.88
2022-10-06T16:01:58.232Z,7.75
2022-10-06T16:04:34.763Z,5.35
2022-10-06T16:07:02.737Z,5.53
2022-10-06T16:09:31.518Z,6.50
2022-10-06T16:11:59.628Z,10.75
2022-10-06T16:14:26.481Z,6.30
2022-10-06T16:16:59.340Z,5.53
2022-10-06T16:19:28.281Z,8.32
2022-10-06T16:21:58.777Z,10.32
2022-10-06T16:24:26.425Z,19.25
2022-10-06T16:26:53.822Z,13.55
2022-10-06T16:29:21.522Z,6.15
2022-10-06T16:31:48.683Z,7.65
2022-10-06T16:34:15.667Z,9.77
2022-10-06T16:36:42.776Z,6.68
2022-10-06T16:39:18.169Z,6.18
2022-10-06T16:41:44.826Z,7.97
2022-10-06T16:44:12.341Z,6.65
2022-10-06T16:46:39.188Z,9.30
2022-10-06T16:49:08.433Z,10.73
2022-10-06T16:51:43.446Z,9.00
2022-10-06T16:54:12.605Z,9.90
2022-10-06T16:56:41.689Z,10.02
2022-10-06T16:59:13.577Z,14.52
2022-10-06T17:01:40.266Z,53.42
2022-10-06T17:04:18.554Z,25.15
2022-10-06T17:06:47.582Z,16.90
2022-10-06T17:09:16.800Z,17.80
2022-10-06T17:11:46.139Z,25.73
2022-10-06T17:14:13.336Z,16.48
2022-10-06T17:16:42.865Z,13.82
2022-10-06T17:19:12.231Z,12.55
2022-10-06T17:21:47.493Z,26.98
2022-10-06T17:24:17.445Z,60.17
2022-10-06T17:26:47.290Z,27.67
2022-10-06T17:29:21.198Z,17.17
2022-10-06T17:31:49.672Z,11.02
2022-10-06T17:34:21.482Z,10.43
2022-10-06T17:36:50.869Z,91.80
2022-10-06T17:39:20.014Z,145.20
2022-10-06T17:41:47.420Z,96.35
2022-10-06T17:44:22.273Z,44.72
2022-10-06T17:46:51.184Z,18.27
2022-10-06T17:49:21.957Z,10.52
2022-10-06T17:51:50.237Z,9.15
2022-10-06T17:54:20.190Z,13.32
2022-10-06T17:56:48.691Z,7.45
2022-10-06T17:59:17.953Z,6.82
2022-10-06T18:01:44.867Z,12.27
2022-10-06T18:04:16.059Z,18.45
2022-10-06T18:06:43.948Z,15.10
2022-10-06T18:09:10.818Z,15.48
2022-10-06T18:11:43.399Z,14.85
2022-10-06T18:14:33.191Z,19.75
2022-10-06T18:17:01.563Z,26.85
2022-10-06T18:19:35.821Z,42.95
2022-10-06T18:24:31.841Z,19.20
2022-10-06T18:27:00.446Z,11.57
2022-10-06T18:29:32.735Z,14.88
2022-10-06T18:33:37.273Z,13.52
2022-10-06T18:37:34.300Z,16.80
2022-10-06T18:40:05.189Z,12.48
2022-10-06T18:42:31.789Z,15.45
2022-10-06T18:45:16.938Z,12.68
2022-10-06T18:48:02.415Z,7.85
2022-10-06T18:50:29.001Z,11.40
2022-10-06T18:52:56.841Z,14.90
2022-10-06T18:55:23.440Z,13.50
2022-10-06T18:57:50.696Z,12.02
2022-10-06T19:00:17.442Z,9.98
2022-10-06T19:02:48.215Z,11.27
2022-10-06T19:05:17.241Z,8.73
2022-10-06T19:07:44.715Z,9.25
2022-10-06T19:10:11.794Z,14.75
2022-10-06T19:12:38.508Z,12.13
2022-10-06T19:15:05.601Z,13.40
2022-10-06T19:17:32.250Z,14.88
2022-10-06T19:19:59.070Z,17.75
2022-10-06T19:22:25.606Z,13.63
2022-10-06T19:24:52.665Z,11.48
2022-10-06T19:27:27.969Z,13.25
2022-10-06T19:29:56.527Z,9.93
2022-10-06T19:32:28.837Z,8.82
2022-10-06T19:34:58.563Z,9.60
2022-10-06T19:37:27.709Z,13.30
2022-10-06T19:39:54.271Z,10.75
2022-10-06T19:42:40.106Z,9.57
2022-10-06T19:45:08.475Z,11.25
2022-10-06T19:47:35.424Z,8.10
2022-10-06T19:50:08.724Z,9.90
2022-10-06T19:52:38.069Z,9.32
2022-10-06T19:55:05.203Z,7.05
2022-10-06T19:57:33.427Z,5.60
2022-10-06T20:00:00.094Z,9.98
2022-10-06T20:02:28.697Z,11.05
2022-10-06T20:04:55.702Z,10.32
2022-10-06T20:07:25.486Z,7.63
2022-10-06T20:09:52.120Z,11.77
2022-10-06T20:12:24.317Z,13.38
2022-10-06T20:14:51.757Z,10.98
2022-10-06T20:17:18.619Z,9.52
2022-10-06T20:19:46.451Z,8.82
2022-10-06T20:22:13.657Z,10.05
2022-10-06T20:24:40.269Z,11.88
2022-10-06T20:27:06.874Z,14.48
2022-10-06T20:29:34.553Z,11.98
2022-10-06T20:32:01.200Z,7.93
2022-10-06T20:34:31.943Z,12.05
2022-10-06T20:37:04.128Z,8.63
2022-10-06T20:39:51.257Z,8.70
2022-10-06T20:42:19.734Z,4.85
2022-10-06T20:44:46.479Z,5.93
2022-10-06T20:47:13.930Z,10.23
2022-10-06T20:49:42.381Z,7.88
2022-10-06T20:52:09.855Z,9.60
2022-10-06T20:54:37.503Z,11.35
2022-10-06T20:57:06.170Z,13.40
2022-10-06T20:59:36.738Z,10.38
2022-10-06T21:02:05.040Z,9.55
2022-10-06T21:04:31.742Z,8.70
2022-10-06T21:06:58.426Z,10.50
2022-10-06T21:09:25.059Z,9.85
2022-10-06T21:11:52.220Z,6.13
2022-10-06T21:14:19.922Z,11.75
2022-10-06T21:16:48.313Z,7.00
2022-10-06T21:19:17.152Z,6.75
2022-10-06T21:21:50.696Z,10.00
2022-10-06T21:24:17.681Z,6.55
2022-10-06T21:26:44.616Z,8.82
2022-10-06T21:29:15.549Z,7.03
2022-10-06T21:31:43.675Z,10.88
2022-10-06T21:34:10.806Z,8.77
2022-10-06T21:36:37.990Z,8.55
2022-10-06T21:39:05.858Z,6.95
2022-10-06T21:41:35.620Z,9.55
2022-10-06T21:44:03.821Z,8.50
2022-10-06T21:46:53.641Z,7.93
2022-10-06T21:49:22.129Z,9.45
2022-10-06T21:51:51.482Z,11.98
2022-10-06T21:54:19.601Z,9.27
2022-10-06T21:56:46.554Z,6.38
2022-10-06T21:59:13.502Z,9.65
2022-10-06T22:01:42.120Z,7.82
2022-10-06T22:04:09.235Z,8.60
2022-10-06T22:06:37.124Z,8.10
2022-10-06T22:09:06.174Z,7.15
2022-10-06T22:11:36.506Z,7.20
2022-10-06T22:14:07.282Z,9.00
2022-10-06T22:16:36.321Z,10.93
2022-10-06T22:19:05.678Z,8.55
2022-10-06T22:21:37.890Z,5.93
2022-10-06T22:24:09.824Z,6.55
2022-10-06T22:26:38.301Z,9.98
2022-10-06T22:29:07.467Z,5.40
2022-10-06T22:31:35.022Z,7.40
2022-10-06T22:34:04.801Z,8.88
2022-10-06T22:36:33.069Z,8.98
2022-10-06T22:39:00.094Z,8.38
2022-10-06T22:41:26.956Z,8.65
2022-10-06T22:43:57.429Z,8.32
2022-10-06T22:46:29.712Z,7.05
2022-10-06T22:48:57.102Z,7.57
2022-10-06T22:51:24.572Z,7.22
2022-10-06T22:53:58.318Z,9.18
2022-10-06T22:56:29.767Z,4.13
2022-10-06T22:58:59.433Z,7.13
2022-10-06T23:01:26.673Z,6.55
2022-10-06T23:03:57.029Z,6.15
2022-10-06T23:06:24.518Z,8.48
2022-10-06T23:08:51.461Z,6.53
2022-10-06T23:11:19.892Z,10.77
2022-10-06T23:13:48.287Z,6.05
2022-10-06T23:16:16.667Z,10.30
2022-10-06T23:18:44.970Z,8.40
2022-10-06T23:21:22.952Z,9.68
2022-10-06T23:23:52.415Z,3.47
2022-10-06T23:26:20.001Z,3.38
2022-10-06T23:28:51.894Z,7.03
2022-10-06T23:31:19.106Z,6.32
2022-10-06T23:33:46.342Z,6.03
2022-10-06T23:36:14.503Z,7.18
2022-10-06T23:38:42.310Z,19.38
2022-10-06T23:41:08.962Z,5.32
2022-10-06T23:43:35.626Z,11.90
2022-10-06T23:46:02.866Z,6.95
2022-10-06T23:48:29.973Z,6.25
2022-10-06T23:50:58.753Z,5.15
2022-10-06T23:53:25.969Z,10.73
2022-10-06T23:55:52.759Z,3.15
2022-10-06T23:58:20.722Z,6.45
